Time;durP1;ratioP1;P1;durP2;ratioP2;P2;SDS_P1;SDS_P2;PMS_P1;PMS_P2;Temp;Humidity;BMP_temperature;BMP_pressure;BME280_temperature;BME280_humidity;BME280_pressure;Samples;Min_cycle;Max_cycle;Signal;HPM_P1;HPM_P2
2023/11/30 00:00:19;;;;;;;1.70;1.60;;;1.40;98.20;;;;;;5046674;28;20461;-77
2023/11/30 00:02:45;;;;;;;1.73;1.63;;;1.40;98.20;;;;;;5045209;28;20461;-76
2023/11/30 00:05:12;;;;;;;1.70;1.60;;;1.40;98.20;;;;;;5043445;28;20471;-76
2023/11/30 00:07:40;;;;;;;1.70;1.60;;;1.40;98.20;;;;;;5045651;28;20466;-76
2023/11/30 00:10:08;;;;;;;1.70;1.50;;;1.40;98.20;;;;;;5043786;28;20569;-76
2023/11/30 00:12:35;;;;;;;1.70;1.60;;;1.50;98.20;;;;;;5045780;28;20550;-77
2023/11/30 00:15:02;;;;;;;1.70;1.60;;;1.40;98.20;;;;;;5042508;28;20486;-77
2023/11/30 00:17:29;;;;;;;1.80;1.70;;;1.40;98.20;;;;;;5046245;28;20454;-76
2023/11/30 00:19:56;;;;;;;1.70;1.60;;;1.50;98.20;;;;;;5046389;28;20470;-76
2023/11/30 00:22:23;;;;;;;1.70;1.50;;;1.50;98.20;;;;;;5045061;28;20453;-77
2023/11/30 00:24:51;;;;;;;1.80;1.70;;;1.50;98.20;;;;;;5045880;28;20474;-76
2023/11/30 00:27:17;;;;;;;1.70;1.50;;;1.50;98.20;;;;;;5046438;28;20457;-76
2023/11/30 00:29:44;;;;;;;1.70;1.50;;;1.50;98.20;;;;;;5046132;28;20950;-77
2023/11/30 00:32:11;;;;;;;1.70;1.60;;;1.50;98.20;;;;;;5046110;28;20845;-76
2023/11/30 00:34:38;;;;;;;1.70;1.50;;;1.50;98.20;;;;;;5049440;28;20509;-77
2023/11/30 00:37:05;;;;;;;1.70;1.50;;;1.50;98.20;;;;;;5049900;28;20478;-77
2023/11/30 00:39:32;;;;;;;1.70;1.53;;;1.50;98.20;;;;;;5050553;28;20967;-76
2023/11/30 00:42:00;;;;;;;1.70;1.57;;;1.50;98.20;;;;;;5049213;28;20450;-76
2023/11/30 00:44:27;;;;;;;1.70;1.50;;;1.50;98.20;;;;;;5049833;28;20484;-76
2023/11/30 00:46:54;;;;;;;1.70;1.57;;;1.50;98.20;;;;;;5049166;28;20454;-76
2023/11/30 00:49:20;;;;;;;1.70;1.53;;;1.50;98.20;;;;;;5047109;28;20466;-76
2023/11/30 00:51:47;;;;;;;1.70;1.50;;;1.50;98.20;;;;;;5042754;28;20469;-77
2023/11/30 00:54:14;;;;;;;1.80;1.70;;;1.50;98.20;;;;;;5049783;28;20482;-77
2023/11/30 00:56:40;;;;;;;1.70;1.60;;;1.50;98.20;;;;;;5049188;28;20860;-76
2023/11/30 00:59:09;;;;;;;1.70;1.60;;;1.50;98.20;;;;;;5049730;28;20855;-76
2023/11/30 01:01:35;;;;;;;1.70;1.60;;;1.50;98.20;;;;;;5048696;28;20461;-76
2023/11/30 01:04:02;;;;;;;1.63;1.50;;;1.50;98.20;;;;;;5045507;28;20482;-76
2023/11/30 01:06:29;;;;;;;1.70;1.50;;;1.50;98.20;;;;;;5049412;28;20648;-77
2023/11/30 01:08:55;;;;;;;1.70;1.60;;;1.50;98.20;;;;;;5048570;28;20455;-76
2023/11/30 01:11:22;;;;;;;1.70;1.60;;;1.50;98.20;;;;;;5048832;28;20676;-77
2023/11/30 01:13:49;;;;;;;1.63;1.50;;;1.50;98.20;;;;;;5048329;28;21032;-76
2023/11/30 01:16:17;;;;;;;1.70;1.50;;;1.60;98.20;;;;;;5049482;28;20473;-77
2023/11/30 01:18:44;;;;;;;1.70;1.50;;;1.60;98.20;;;;;;5049040;28;20454;-76
2023/11/30 01:21:11;;;;;;;1.70;1.60;;;1.60;98.20;;;;;;5048225;28;20493;-76
2023/11/30 01:23:37;;;;;;;1.70;1.50;;;1.60;98.20;;;;;;5048695;28;20478;-77
2023/11/30 01:26:04;;;;;;;1.70;1.57;;;1.60;98.20;;;;;;5046033;28;20453;-77
2023/11/30 01:28:31;;;;;;;1.70;1.50;;;1.70;98.20;;;;;;5049192;28;20464;-76
2023/11/30 01:30:58;;;;;;;1.70;1.47;;;1.70;98.20;;;;;;5048146;28;20465;-77
2023/11/30 01:33:26;;;;;;;1.70;1.50;;;1.70;98.20;;;;;;5048424;28;20541;-76
2023/11/30 01:35:53;;;;;;;1.70;1.50;;;1.70;98.20;;;;;;5048950;28;20486;-76
2023/11/30 01:38:20;;;;;;;1.70;1.50;;;1.70;98.20;;;;;;5049097;28;20912;-77
2023/11/30 01:40:47;;;;;;;1.70;1.50;;;1.70;98.20;;;;;;5047171;28;20859;-76
2023/11/30 01:43:18;;;;;;;1.67;1.50;;;1.70;98.20;;;;;;5046032;28;20467;-77
2023/11/30 01:45:45;;;;;;;1.67;1.50;;;1.80;98.20;;;;;;5048639;28;20454;-77
2023/11/30 01:48:13;;;;;;;1.70;1.60;;;1.70;98.20;;;;;;5045811;28;20478;-77
2023/11/30 01:50:41;;;;;;;1.70;1.60;;;1.80;98.20;;;;;;5048229;28;20455;-77
2023/11/30 01:53:09;;;;;;;1.70;1.60;;;1.80;98.20;;;;;;5046785;28;20857;-78
2023/11/30 01:55:36;;;;;;;1.70;1.50;;;1.80;98.20;;;;;;5048635;28;20455;-77
2023/11/30 01:58:05;;;;;;;1.80;1.70;;;1.80;98.20;;;;;;5048035;28;20455;-76
2023/11/30 02:00:32;;;;;;;1.67;1.57;;;1.80;98.20;;;;;;5048006;28;20613;-77
2023/11/30 02:03:00;;;;;;;2.47;2.27;;;1.80;98.20;;;;;;5047011;28;20458;-77
2023/11/30 02:05:27;;;;;;;1.70;1.50;;;1.80;98.20;;;;;;5048596;28;20882;-76
2023/11/30 02:07:55;;;;;;;1.70;1.50;;;1.80;98.20;;;;;;5047874;28;20466;-76
2023/11/30 02:10:24;;;;;;;1.70;1.50;;;1.80;98.20;;;;;;5046105;28;20461;-76
2023/11/30 02:12:51;;;;;;;1.70;1.50;;;1.80;98.20;;;;;;5046998;28;21007;-76
2023/11/30 02:15:18;;;;;;;1.70;1.50;;;1.90;98.20;;;;;;5046348;28;20482;-76
2023/11/30 02:17:45;;;;;;;1.60;1.40;;;1.90;98.20;;;;;;5046508;28;20989;-77
2023/11/30 02:20:12;;;;;;;1.60;1.40;;;1.90;98.20;;;;;;5047926;28;20459;-77
2023/11/30 02:22:40;;;;;;;1.70;1.50;;;1.90;98.20;;;;;;5046722;28;20972;-77
2023/11/30 02:25:07;;;;;;;1.67;1.50;;;1.90;98.20;;;;;;5047944;28;20474;-77
2023/11/30 02:27:34;;;;;;;1.70;1.60;;;1.90;98.20;;;;;;5044841;28;20446;-76
2023/11/30 02:30:01;;;;;;;1.70;1.50;;;1.90;98.20;;;;;;5047731;28;20466;-76
2023/11/30 02:32:28;;;;;;;1.63;1.40;;;1.90;98.20;;;;;;5045419;28;20454;-77
2023/11/30 02:34:54;;;;;;;1.70;1.43;;;1.90;98.20;;;;;;5046532;28;20516;-78
2023/11/30 02:37:21;;;;;;;1.70;1.50;;;1.90;98.20;;;;;;5047608;28;21108;-76
2023/11/30 02:39:49;;;;;;;1.67;1.40;;;1.90;98.20;;;;;;5046992;28;20898;-76
2023/11/30 02:42:16;;;;;;;1.63;1.50;;;1.90;98.20;;;;;;5044750;28;20462;-76
2023/11/30 02:44:43;;;;;;;1.70;1.50;;;1.90;98.20;;;;;;5047242;28;20478;-76
2023/11/30 02:47:10;;;;;;;1.63;1.50;;;1.90;98.20;;;;;;5047758;28;20534;-76
2023/11/30 02:49:36;;;;;;;1.70;1.50;;;2.00;98.20;;;;;;5048141;28;20462;-76
2023/11/30 02:52:11;;;;;;;1.70;1.50;;;2.00;98.20;;;;;;5046566;28;20473;-76
2023/11/30 02:54:37;;;;;;;1.70;1.60;;;2.00;98.20;;;;;;5043015;28;20489;-76
2023/11/30 02:57:06;;;;;;;1.70;1.50;;;2.00;98.20;;;;;;5045278;28;21012;-76
2023/11/30 02:59:32;;;;;;;1.67;1.40;;;1.90;98.20;;;;;;5028155;28;20462;-76
2023/11/30 03:01:59;;;;;;;1.70;1.50;;;1.90;98.20;;;;;;5041747;28;20856;-76
2023/11/30 03:04:26;;;;;;;1.63;1.40;;;1.90;98.20;;;;;;5042298;28;20477;-76
2023/11/30 03:06:52;;;;;;;1.60;1.40;;;1.90;98.20;;;;;;5037591;28;20453;-76
2023/11/30 03:09:19;;;;;;;2.00;1.80;;;1.90;98.20;;;;;;5047085;28;20948;-76
2023/11/30 03:11:46;;;;;;;1.70;1.60;;;1.90;98.20;;;;;;5037332;28;20534;-76
2023/11/30 03:14:14;;;;;;;1.67;1.50;;;1.90;98.20;;;;;;5046342;28;20484;-75
2023/11/30 03:16:41;;;;;;;1.70;1.50;;;1.90;98.20;;;;;;5045077;28;20478;-75
2023/11/30 03:19:08;;;;;;;1.67;1.40;;;1.90;98.20;;;;;;5045927;28;20447;-75
2023/11/30 03:21:34;;;;;;;1.67;1.50;;;1.90;98.20;;;;;;5040657;28;20455;-76
2023/11/30 03:24:01;;;;;;;1.67;1.40;;;1.90;98.20;;;;;;5045663;28;20482;-75
2023/11/30 03:26:28;;;;;;;1.60;1.40;;;1.90;98.20;;;;;;5038681;28;20517;-75
2023/11/30 03:28:55;;;;;;;1.67;1.47;;;1.90;98.20;;;;;;5027925;28;20739;-75
2023/11/30 03:31:23;;;;;;;1.70;1.50;;;1.90;98.20;;;;;;5039778;28;20454;-75
2023/11/30 03:33:49;;;;;;;1.60;1.50;;;1.90;98.20;;;;;;5045423;28;20473;-76
2023/11/30 03:36:16;;;;;;;1.63;1.40;;;1.90;98.20;;;;;;5036901;28;20860;-76
2023/11/30 03:38:43;;;;;;;1.70;1.50;;;1.90;98.20;;;;;;5046037;28;20458;-76
2023/11/30 03:41:12;;;;;;;1.80;1.70;;;1.90;98.20;;;;;;5045600;28;20461;-77
2023/11/30 03:43:39;;;;;;;1.70;1.50;;;2.00;98.20;;;;;;5044544;28;20470;-76
2023/11/30 03:46:06;;;;;;;1.70;1.60;;;2.00;98.20;;;;;;5046815;28;20454;-76
2023/11/30 03:48:35;;;;;;;1.70;1.43;;;2.00;98.20;;;;;;5042084;28;20454;-76
2023/11/30 03:51:01;;;;;;;1.63;1.50;;;2.00;98.20;;;;;;5042821;28;20462;-76
2023/11/30 03:53:28;;;;;;;1.70;1.50;;;2.00;98.20;;;;;;5045491;28;20488;-76
2023/11/30 03:55:55;;;;;;;1.80;1.60;;;2.00;98.20;;;;;;5044773;28;20455;-77
2023/11/30 03:58:21;;;;;;;1.70;1.60;;;2.00;98.20;;;;;;5044222;28;20485;-77
2023/11/30 04:00:49;;;;;;;1.63;1.50;;;2.10;98.20;;;;;;5045684;28;20455;-77
2023/11/30 04:03:16;;;;;;;1.67;1.33;;;2.10;98.20;;;;;;5041709;28;20721;-77
2023/11/30 04:05:44;;;;;;;1.80;1.70;;;2.10;98.20;;;;;;5046497;28;20464;-77
2023/11/30 04:08:11;;;;;;;2.67;2.47;;;2.10;98.20;;;;;;5049917;28;20450;-77
2023/11/30 04:10:38;;;;;;;1.67;1.53;;;2.10;98.20;;;;;;5050329;28;20461;-76
2023/11/30 04:13:04;;;;;;;1.60;1.50;;;2.10;98.20;;;;;;5045606;28;20461;-77
2023/11/30 04:15:31;;;;;;;1.67;1.40;;;2.10;98.20;;;;;;5050212;28;20478;-77
2023/11/30 04:17:58;;;;;;;1.67;1.43;;;2.10;98.20;;;;;;5047065;28;20485;-76
2023/11/30 04:20:26;;;;;;;1.70;1.50;;;2.10;98.20;;;;;;5047592;28;20555;-77
2023/11/30 04:22:54;;;;;;;1.63;1.40;;;2.10;98.20;;;;;;5048584;28;21128;-77
2023/11/30 04:25:22;;;;;;;1.67;1.50;;;2.10;98.20;;;;;;5049988;28;20474;-77
2023/11/30 04:27:49;;;;;;;1.67;1.50;;;2.10;98.20;;;;;;5049485;28;21050;-77
2023/11/30 04:30:16;;;;;;;1.70;1.50;;;2.10;98.20;;;;;;5049993;28;20814;-79
2023/11/30 04:32:42;;;;;;;1.63;1.50;;;2.10;98.20;;;;;;5046633;28;20454;-78
2023/11/30 04:35:09;;;;;;;1.63;1.40;;;2.10;98.20;;;;;;5047808;28;21131;-77
2023/11/30 04:37:36;;;;;;;3.07;2.87;;;2.10;98.20;;;;;;5050100;28;20478;-79
2023/11/30 04:40:06;;;;;;;1.70;1.50;;;2.10;98.20;;;;;;5048295;28;20806;-77
2023/11/30 04:42:33;;;;;;;1.67;1.40;;;2.10;98.20;;;;;;5050973;28;20453;-77
2023/11/30 04:44:59;;;;;;;1.70;1.50;;;2.10;98.20;;;;;;5051767;28;20470;-78
2023/11/30 04:47:26;;;;;;;1.70;1.60;;;2.10;98.20;;;;;;5052945;28;20450;-77
2023/11/30 04:49:53;;;;;;;1.63;1.37;;;2.10;98.20;;;;;;5053220;28;20939;-78
2023/11/30 04:52:20;;;;;;;1.63;1.40;;;2.10;98.20;;;;;;5049538;28;20466;-78
2023/11/30 04:54:46;;;;;;;1.70;1.60;;;2.10;98.20;;;;;;5048945;28;21086;-78
2023/11/30 04:57:15;;;;;;;1.67;1.40;;;2.20;98.20;;;;;;5053506;28;20592;-78
2023/11/30 04:59:42;;;;;;;1.70;1.60;;;2.10;98.20;;;;;;5054657;28;20883;-78
2023/11/30 05:02:09;;;;;;;1.70;1.50;;;2.20;98.20;;;;;;5051725;28;20892;-78
2023/11/30 05:04:37;;;;;;;1.60;1.40;;;2.20;98.20;;;;;;5054004;28;20478;-79
2023/11/30 05:07:03;;;;;;;1.60;1.40;;;2.20;98.20;;;;;;5054023;28;20453;-78
2023/11/30 05:09:30;;;;;;;2.30;2.10;;;2.20;98.20;;;;;;5049824;28;20450;-78
2023/11/30 05:11:57;;;;;;;1.70;1.50;;;2.20;98.20;;;;;;5052339;28;20844;-78
2023/11/30 05:14:25;;;;;;;1.63;1.40;;;2.20;98.20;;;;;;5054430;28;20474;-78
2023/11/30 05:16:52;;;;;;;1.63;1.50;;;2.20;98.20;;;;;;5054658;28;20513;-78
2023/11/30 05:19:18;;;;;;;1.67;1.50;;;2.20;98.20;;;;;;5053761;28;20478;-79
2023/11/30 05:21:45;;;;;;;2.17;1.97;;;2.20;98.20;;;;;;5053088;28;20454;-80
2023/11/30 05:24:12;;;;;;;1.70;1.40;;;2.20;98.20;;;;;;5056563;28;20476;-79
2023/11/30 05:26:39;;;;;;;1.70;1.50;;;2.20;98.20;;;;;;5054789;28;20462;-79
2023/11/30 05:29:06;;;;;;;1.70;1.50;;;2.20;98.20;;;;;;5055234;28;20468;-78
2023/11/30 05:31:35;;;;;;;2.33;2.13;;;2.20;98.20;;;;;;5054353;28;20549;-79
2023/11/30 05:34:02;;;;;;;1.67;1.50;;;2.20;98.20;;;;;;5052828;28;20470;-79
2023/11/30 05:36:29;;;;;;;1.70;1.60;;;2.20;98.20;;;;;;5054928;28;20463;-79
2023/11/30 05:38:56;;;;;;;1.77;1.67;;;2.20;98.20;;;;;;5052833;28;20485;-78
2023/11/30 05:41:22;;;;;;;1.67;1.50;;;2.20;98.20;;;;;;5054258;28;20459;-78
2023/11/30 05:43:49;;;;;;;1.70;1.50;;;2.20;98.20;;;;;;5053186;28;20805;-79
2023/11/30 05:46:16;;;;;;;2.00;1.80;;;2.20;98.20;;;;;;5053705;28;20458;-78
2023/11/30 05:48:44;;;;;;;1.60;1.40;;;2.20;98.20;;;;;;5052718;28;20743;-80
2023/11/30 05:51:11;;;;;;;1.70;1.50;;;2.20;98.20;;;;;;5053898;28;20499;-78
2023/11/30 05:53:38;;;;;;;1.63;1.50;;;2.20;98.20;;;;;;5040219;28;20547;-78
2023/11/30 05:56:05;;;;;;;1.60;1.40;;;2.20;98.20;;;;;;5041775;28;20455;-77
2023/11/30 05:58:32;;;;;;;1.70;1.50;;;2.20;98.20;;;;;;5042337;28;21038;-78
2023/11/30 06:00:59;;;;;;;1.67;1.47;;;2.20;98.20;;;;;;5044066;28;20455;-78
2023/11/30 06:03:26;;;;;;;1.63;1.40;;;2.20;98.20;;;;;;5040656;28;20838;-78
2023/11/30 06:05:54;;;;;;;1.67;1.50;;;2.20;98.20;;;;;;5036187;28;20447;-78
2023/11/30 06:08:21;;;;;;;1.70;1.50;;;2.20;98.20;;;;;;5045781;28;20549;-78
2023/11/30 06:10:47;;;;;;;1.67;1.40;;;2.20;98.20;;;;;;5041421;28;20465;-78
2023/11/30 06:13:15;;;;;;;5.13;3.17;;;2.20;98.20;;;;;;5042778;28;20500;-78
2023/11/30 06:15:42;;;;;;;1.83;1.73;;;2.20;98.20;;;;;;5036798;28;20463;-78
2023/11/30 06:18:09;;;;;;;1.67;1.53;;;2.20;98.20;;;;;;5047446;28;20490;-78
2023/11/30 06:20:36;;;;;;;1.63;1.50;;;2.30;98.20;;;;;;5050741;28;20565;-78
2023/11/30 06:23:05;;;;;;;1.70;1.50;;;2.30;98.20;;;;;;5047340;28;20459;-78
2023/11/30 06:25:32;;;;;;;1.60;1.43;;;2.30;98.20;;;;;;5040766;28;20588;-78
2023/11/30 06:27:58;;;;;;;1.63;1.50;;;2.30;98.20;;;;;;5042356;28;20811;-78
2023/11/30 06:30:25;;;;;;;1.70;1.50;;;2.30;98.20;;;;;;5043356;28;20846;-78
2023/11/30 06:32:52;;;;;;;1.80;1.70;;;2.30;98.20;;;;;;5039992;28;20459;-78
2023/11/30 06:35:19;;;;;;;1.67;1.50;;;2.30;98.20;;;;;;5040203;28;21138;-77
2023/11/30 06:37:46;;;;;;;1.70;1.50;;;2.30;98.20;;;;;;5038888;28;20514;-78
2023/11/30 06:40:15;;;;;;;2.30;2.10;;;2.30;98.20;;;;;;5041730;28;20572;-77
2023/11/30 06:42:41;;;;;;;1.60;1.40;;;2.30;98.20;;;;;;5038162;28;20809;-78
2023/11/30 06:45:09;;;;;;;1.63;1.50;;;2.40;98.20;;;;;;5038286;28;20562;-78
2023/11/30 06:47:36;;;;;;;1.60;1.40;;;2.40;98.20;;;;;;5042278;28;20461;-77
2023/11/30 06:50:04;;;;;;;1.63;1.50;;;2.40;98.20;;;;;;5042494;28;20466;-77
2023/11/30 06:52:31;;;;;;;1.67;1.43;;;2.40;98.20;;;;;;5044204;28;20563;-78
2023/11/30 06:54:58;;;;;;;1.60;1.40;;;2.40;98.20;;;;;;5036213;28;20586;-78
2023/11/30 06:57:26;;;;;;;1.63;1.50;;;2.40;98.20;;;;;;5039306;28;20876;-78
2023/11/30 06:59:53;;;;;;;1.67;1.40;;;2.40;98.20;;;;;;5040713;28;20467;-78
2023/11/30 07:02:20;;;;;;;1.73;1.63;;;2.50;98.20;;;;;;5045562;28;20545;-78
2023/11/30 07:04:48;;;;;;;1.60;1.40;;;2.50;98.20;;;;;;5037389;28;20482;-78
2023/11/30 07:07:15;;;;;;;1.67;1.50;;;2.50;98.20;;;;;;5037352;28;20463;-78
2023/11/30 07:09:42;;;;;;;1.70;1.50;;;2.50;98.20;;;;;;5045858;28;20459;-78
2023/11/30 07:12:10;;;;;;;1.67;1.43;;;2.50;98.20;;;;;;5047060;28;20470;-78
2023/11/30 07:14:38;;;;;;;1.63;1.40;;;2.50;98.20;;;;;;5044299;28;20966;-78
2023/11/30 07:17:05;;;;;;;1.60;1.50;;;2.50;98.20;;;;;;5035341;28;20450;-78
2023/11/30 07:19:33;;;;;;;1.63;1.40;;;2.60;98.20;;;;;;5038721;28;20458;-78
2023/11/30 07:21:59;;;;;;;1.70;1.53;;;2.60;98.20;;;;;;5040444;28;20949;-78
2023/11/30 07:24:26;;;;;;;1.60;1.40;;;2.60;98.20;;;;;;5038803;28;20543;-78
2023/11/30 07:26:53;;;;;;;1.70;1.60;;;2.60;98.20;;;;;;5033142;28;20461;-78
2023/11/30 07:29:19;;;;;;;1.70;1.50;;;2.60;98.20;;;;;;5037343;28;20461;-78
2023/11/30 07:31:50;;;;;;;1.60;1.40;;;2.60;98.20;;;;;;5043975;28;20463;-78
2023/11/30 07:34:17;;;;;;;1.60;1.30;;;2.60;98.20;;;;;;5033100;28;20483;-79
2023/11/30 07:36:44;;;;;;;1.70;1.50;;;2.60;98.20;;;;;;5034663;28;20459;-79
2023/11/30 07:39:11;;;;;;;1.70;1.60;;;2.60;98.20;;;;;;5038586;28;20494;-79
2023/11/30 07:41:38;;;;;;;1.67;1.50;;;2.60;98.20;;;;;;5042566;28;20468;-79
2023/11/30 07:44:05;;;;;;;1.70;1.50;;;2.60;98.20;;;;;;5041102;28;20480;-79
2023/11/30 07:46:31;;;;;;;1.70;1.40;;;2.60;98.20;;;;;;5043285;28;20465;-79
2023/11/30 07:49:01;;;;;;;1.70;1.50;;;2.70;98.20;;;;;;5043426;28;20749;-79
2023/11/30 07:51:27;;;;;;;1.70;1.50;;;2.70;98.20;;;;;;5038341;28;20468;-79
2023/11/30 07:53:54;;;;;;;1.67;1.40;;;2.70;98.20;;;;;;5042507;28;20482;-80
2023/11/30 07:56:21;;;;;;;1.63;1.50;;;2.70;98.20;;;;;;5040414;28;20459;-80
2023/11/30 07:58:49;;;;;;;1.70;1.50;;;2.70;98.20;;;;;;5037704;28;20490;-79
2023/11/30 08:01:16;;;;;;;1.70;1.57;;;2.70;98.20;;;;;;5045091;28;20520;-80
2023/11/30 08:03:43;;;;;;;1.67;1.40;;;2.70;98.20;;;;;;5045062;28;20474;-80
2023/11/30 08:06:12;;;;;;;1.60;1.50;;;2.80;98.20;;;;;;5040913;28;20814;-79
2023/11/30 08:08:39;;;;;;;1.63;1.50;;;2.80;98.20;;;;;;5039236;28;20483;-80
2023/11/30 08:11:07;;;;;;;1.87;1.77;;;2.80;98.20;;;;;;5041788;28;20757;-79
2023/11/30 08:13:35;;;;;;;1.60;1.40;;;2.80;98.20;;;;;;5037619;28;20474;-80
2023/11/30 08:16:02;;;;;;;1.60;1.40;;;2.80;98.20;;;;;;5035135;28;20459;-79
2023/11/30 08:18:29;;;;;;;1.67;1.50;;;2.80;98.20;;;;;;5041355;28;20481;-79
2023/11/30 08:20:58;;;;;;;1.70;1.40;;;2.90;98.20;;;;;;5041955;28;20842;-80
2023/11/30 08:23:26;;;;;;;1.70;1.50;;;2.90;98.20;;;;;;5049951;28;20451;-79
2023/11/30 08:25:54;;;;;;;1.70;1.40;;;2.90;98.20;;;;;;5036559;28;20451;-81
2023/11/30 08:28:21;;;;;;;2.70;2.50;;;3.00;98.20;;;;;;5045518;28;20833;-78
2023/11/30 08:30:48;;;;;;;1.70;1.40;;;3.00;98.20;;;;;;5045966;28;20455;-81
2023/11/30 08:33:15;;;;;;;1.60;1.40;;;2.90;98.20;;;;;;5042324;28;20454;-80
2023/11/30 08:35:42;;;;;;;1.70;1.50;;;3.00;98.20;;;;;;5047811;28;20557;-81
2023/11/30 08:38:09;;;;;;;1.60;1.40;;;3.00;98.20;;;;;;5045105;28;20515;-79
2023/11/30 08:40:38;;;;;;;1.67;1.40;;;3.00;98.20;;;;;;5045673;28;20540;-83
2023/11/30 08:43:05;;;;;;;1.70;1.50;;;3.00;98.20;;;;;;5047662;28;20455;-82
2023/11/30 08:45:32;;;;;;;1.70;1.43;;;3.00;98.20;;;;;;5044992;28;20522;-80
2023/11/30 08:47:59;;;;;;;1.90;1.70;;;3.00;98.20;;;;;;5038780;28;20958;-80
2023/11/30 08:50:26;;;;;;;1.67;1.40;;;3.00;98.20;;;;;;5054599;28;20851;-81
2023/11/30 08:52:52;;;;;;;1.70;1.40;;;3.10;98.20;;;;;;5038020;28;20502;-79
2023/11/30 08:55:19;;;;;;;1.70;1.40;;;3.10;98.20;;;;;;5049571;28;20512;-81
2023/11/30 08:57:48;;;;;;;1.70;1.40;;;3.20;98.20;;;;;;5047319;28;20556;-79
2023/11/30 09:00:16;;;;;;;1.70;1.40;;;3.20;98.20;;;;;;5042166;28;20463;-80
2023/11/30 09:02:43;;;;;;;1.70;1.50;;;3.20;98.20;;;;;;5044028;28;20451;-78
2023/11/30 09:05:12;;;;;;;1.60;1.40;;;3.20;98.20;;;;;;5042495;28;20910;-78
2023/11/30 09:07:38;;;;;;;1.60;1.40;;;3.30;98.20;;;;;;5040715;28;20455;-79
2023/11/30 09:10:06;;;;;;;1.60;1.40;;;3.30;98.20;;;;;;5041809;28;21104;-79
2023/11/30 09:12:33;;;;;;;1.70;1.40;;;3.30;98.20;;;;;;5039823;28;20462;-80
2023/11/30 09:15:01;;;;;;;2.47;2.27;;;3.40;98.20;;;;;;5044031;28;20482;-80
2023/11/30 09:17:29;;;;;;;1.63;1.40;;;3.40;98.20;;;;;;5038882;28;20470;-79
2023/11/30 09:19:56;;;;;;;1.70;1.50;;;3.40;98.20;;;;;;5049618;28;20514;-84
2023/11/30 09:22:22;;;;;;;1.60;1.40;;;3.40;98.20;;;;;;5045604;28;20683;-83
2023/11/30 09:24:50;;;;;;;1.60;1.40;;;3.40;98.20;;;;;;5046055;28;20484;-82
2023/11/30 09:27:17;;;;;;;1.67;1.30;;;3.40;98.20;;;;;;5042896;28;20466;-79
2023/11/30 09:29:43;;;;;;;1.63;1.33;;;3.40;98.20;;;;;;5040756;28;20451;-82
2023/11/30 09:32:12;;;;;;;1.60;1.40;;;3.50;98.20;;;;;;5040105;28;20547;-81
2023/11/30 09:34:38;;;;;;;1.60;1.40;;;3.50;98.20;;;;;;5047543;28;20471;-79
2023/11/30 09:37:05;;;;;;;1.63;1.40;;;3.50;98.20;;;;;;5039145;28;20562;-78
2023/11/30 09:39:32;;;;;;;1.63;1.30;;;3.50;98.20;;;;;;5042483;28;20492;-81
2023/11/30 09:42:00;;;;;;;1.70;1.33;;;3.50;98.20;;;;;;5044445;28;20455;-81
2023/11/30 09:44:27;;;;;;;1.60;1.40;;;3.50;98.20;;;;;;5047752;28;20477;-79
2023/11/30 09:46:54;;;;;;;1.63;1.40;;;3.50;98.20;;;;;;5041838;28;20743;-80
2023/11/30 09:49:23;;;;;;;1.70;1.50;;;3.40;98.20;;;;;;5045628;28;20558;-79
2023/11/30 09:51:52;;;;;;;1.60;1.40;;;3.50;98.20;;;;;;5044573;28;21037;-80
2023/11/30 09:54:21;;;;;;;1.70;1.47;;;3.50;98.20;;;;;;5045351;28;20484;-79
2023/11/30 09:56:48;;;;;;;1.60;1.30;;;3.50;98.20;;;;;;5039511;28;21001;-78
2023/11/30 09:59:15;;;;;;;1.60;1.33;;;3.50;98.20;;;;;;5039904;28;20491;-80
2023/11/30 10:01:43;;;;;;;1.60;1.40;;;3.40;98.20;;;;;;5044226;28;20942;-80
2023/11/30 10:04:14;;;;;;;1.67;1.37;;;3.40;98.20;;;;;;5042739;28;20529;-80
2023/11/30 10:06:43;;;;;;;1.60;1.33;;;3.40;98.20;;;;;;5038944;28;20940;-78
2023/11/30 10:09:12;;;;;;;3.80;3.60;;;3.30;98.20;;;;;;5041551;28;20455;-78
2023/11/30 10:11:39;;;;;;;1.67;1.40;;;3.30;98.20;;;;;;5049039;28;20462;-80
2023/11/30 10:14:06;;;;;;;1.63;1.40;;;3.40;98.20;;;;;;5041555;28;20833;-82
2023/11/30 10:16:33;;;;;;;1.67;1.40;;;3.40;98.20;;;;;;5036384;28;20477;-78
2023/11/30 10:19:00;;;;;;;1.60;1.33;;;3.40;98.20;;;;;;5036013;28;20511;-79
2023/11/30 10:21:26;;;;;;;1.67;1.40;;;3.50;98.20;;;;;;5042095;28;20450;-83
2023/11/30 10:23:56;;;;;;;2.03;1.80;;;3.50;98.20;;;;;;5040530;28;20475;-79
2023/11/30 10:26:25;;;;;;;1.60;1.40;;;3.60;98.20;;;;;;5040794;28;20455;-80
2023/11/30 10:28:53;;;;;;;1.70;1.60;;;3.70;98.20;;;;;;5045269;28;20451;-80
2023/11/30 10:31:21;;;;;;;1.60;1.40;;;3.70;98.20;;;;;;5045436;28;20549;-80
2023/11/30 10:33:54;;;;;;;3.20;3.00;;;3.70;98.20;;;;;;5043778;28;20878;-83
2023/11/30 10:36:22;;;;;;;1.60;1.40;;;3.80;98.20;;;;;;5040943;28;20458;-80
2023/11/30 10:38:53;;;;;;;1.63;1.50;;;3.80;98.20;;;;;;5040700;28;20497;-80
2023/11/30 10:41:28;;;;;;;1.60;1.40;;;3.90;98.20;;;;;;5045875;28;20462;-81
2023/11/30 10:43:58;;;;;;;1.63;1.30;;;4.00;98.20;;;;;;5039079;28;20485;-83
2023/11/30 10:46:26;;;;;;;1.70;1.40;;;4.10;98.20;;;;;;5040012;28;20469;-82
2023/11/30 10:48:54;;;;;;;1.60;1.40;;;4.10;98.20;;;;;;5044966;28;20456;-82
2023/11/30 10:51:22;;;;;;;1.70;1.30;;;4.20;98.20;;;;;;5047518;28;20467;-80
2023/11/30 10:53:58;;;;;;;1.63;1.40;;;4.20;98.20;;;;;;5045131;28;20541;-78
2023/11/30 10:56:28;;;;;;;1.70;1.40;;;4.20;98.20;;;;;;5033861;28;20549;-79
2023/11/30 10:58:55;;;;;;;1.60;1.40;;;4.30;98.20;;;;;;5038374;28;20492;-79
2023/11/30 11:01:22;;;;;;;1.60;1.30;;;4.30;98.20;;;;;;5042225;28;20459;-79
2023/11/30 11:03:55;;;;;;;1.70;1.53;;;4.30;98.20;;;;;;5035455;28;21021;-78
2023/11/30 11:06:26;;;;;;;1.60;1.30;;;4.30;98.20;;;;;;5041742;28;20541;-78
2023/11/30 11:09:07;;;;;;;1.63;1.30;;;4.40;98.20;;;;;;5038417;28;20494;-78
2023/11/30 11:11:39;;;;;;;1.67;1.37;;;4.40;98.20;;;;;;5038984;28;20460;-80
2023/11/30 11:14:06;;;;;;;1.67;1.40;;;4.40;98.20;;;;;;5045273;28;20482;-79
2023/11/30 11:16:35;;;;;;;1.70;1.40;;;4.50;98.20;;;;;;5039557;28;20458;-79
2023/11/30 11:19:04;;;;;;;1.63;1.40;;;4.50;98.20;;;;;;5043370;28;20479;-79
2023/11/30 11:21:36;;;;;;;1.60;1.33;;;4.60;98.20;;;;;;5052259;28;20462;-80
2023/11/30 11:24:04;;;;;;;1.60;1.30;;;4.70;98.20;;;;;;5057736;28;20501;-79
2023/11/30 11:26:43;;;;;;;1.60;1.40;;;4.70;98.20;;;;;;5047597;28;20490;-81
2023/11/30 11:29:12;;;;;;;1.63;1.40;;;4.70;98.20;;;;;;5050494;28;20455;-79
2023/11/30 11:31:39;;;;;;;1.60;1.30;;;4.70;98.20;;;;;;5048363;28;20462;-80
2023/11/30 11:34:07;;;;;;;1.60;1.30;;;4.70;98.20;;;;;;5048303;28;20539;-81
2023/11/30 11:36:36;;;;;;;1.63;1.30;;;4.70;98.20;;;;;;5058186;28;20498;-82
2023/11/30 11:39:04;;;;;;;1.60;1.30;;;4.70;98.20;;;;;;5056957;28;20549;-80
2023/11/30 11:41:31;;;;;;;1.60;1.30;;;4.70;98.20;;;;;;5047878;28;20463;-81
2023/11/30 11:44:00;;;;;;;1.63;1.40;;;4.70;98.20;;;;;;5048563;28;20479;-81
2023/11/30 11:46:29;;;;;;;1.63;1.30;;;4.80;98.20;;;;;;5052760;28;20486;-81
2023/11/30 11:48:57;;;;;;;1.67;1.30;;;4.80;98.20;;;;;;5049447;28;20457;-81
2023/11/30 11:51:23;;;;;;;1.70;1.50;;;4.90;98.20;;;;;;5053963;28;20455;-80
2023/11/30 11:53:50;;;;;;;1.90;1.70;;;4.90;98.20;;;;;;5047641;28;20510;-81
2023/11/30 11:56:18;;;;;;;1.60;1.30;;;5.00;98.20;;;;;;5047237;28;20454;-81
2023/11/30 11:58:46;;;;;;;1.60;1.30;;;5.00;98.20;;;;;;5051450;28;20928;-80
2023/11/30 12:01:16;;;;;;;1.70;1.40;;;5.10;98.20;;;;;;5053811;28;20529;-83
2023/11/30 12:03:52;;;;;;;1.60;1.30;;;5.10;98.20;;;;;;5048669;28;20492;-81
2023/11/30 12:06:29;;;;;;;1.63;1.30;;;5.20;98.20;;;;;;5052005;28;20458;-80
2023/11/30 12:08:56;;;;;;;1.67;1.30;;;5.20;98.20;;;;;;5053806;28;20450;-80
2023/11/30 12:11:23;;;;;;;1.63;1.30;;;5.20;98.20;;;;;;5052540;28;20493;-80
2023/11/30 12:13:51;;;;;;;1.60;1.30;;;5.20;98.20;;;;;;5051579;28;20495;-81
2023/11/30 12:16:19;;;;;;;1.60;1.30;;;5.20;98.20;;;;;;5093212;22;20497;-81
2023/11/30 12:18:46;;;;;;;1.63;1.30;;;5.20;98.20;;;;;;5052005;28;20541;-81
2023/11/30 12:21:13;;;;;;;3.90;3.70;;;5.10;98.20;;;;;;5055325;28;20957;-80
2023/11/30 12:23:40;;;;;;;1.60;1.30;;;5.10;98.20;;;;;;5054972;28;20514;-81
2023/11/30 12:26:07;;;;;;;1.63;1.30;;;5.00;98.20;;;;;;5054200;28;20482;-82
2023/11/30 12:28:34;;;;;;;1.60;1.27;;;5.00;98.20;;;;;;5056132;28;20470;-80
2023/11/30 12:31:01;;;;;;;1.60;1.30;;;4.90;98.20;;;;;;5052051;28;20451;-81
2023/11/30 12:33:29;;;;;;;1.60;1.30;;;4.90;98.20;;;;;;5049857;28;20942;-80
2023/11/30 12:35:56;;;;;;;1.60;1.20;;;4.90;98.20;;;;;;5059555;28;20486;-80
2023/11/30 12:38:23;;;;;;;1.60;1.30;;;4.80;98.20;;;;;;5060031;28;20463;-82
2023/11/30 12:40:50;;;;;;;1.63;1.30;;;4.80;98.20;;;;;;5057277;28;20488;-83
2023/11/30 12:43:17;;;;;;;1.60;1.30;;;4.80;98.20;;;;;;5055908;28;20470;-83
2023/11/30 12:45:44;;;;;;;1.70;1.40;;;4.80;98.20;;;;;;5061399;28;20510;-82
2023/11/30 12:48:13;;;;;;;1.60;1.20;;;4.80;98.20;;;;;;5060519;28;20478;-81
2023/11/30 12:50:41;;;;;;;1.60;1.27;;;4.80;98.20;;;;;;5045890;28;21007;-81
2023/11/30 12:53:08;;;;;;;1.60;1.30;;;4.80;98.20;;;;;;5054896;28;20911;-82
2023/11/30 12:55:35;;;;;;;1.63;1.30;;;4.80;98.20;;;;;;5053701;28;20481;-81
2023/11/30 12:58:02;;;;;;;1.63;1.40;;;4.70;98.20;;;;;;5055989;28;20482;-82